createdAt,value
2023-03-30T00:01:18.492Z,2.80
2023-03-30T00:03:50.213Z,2.30
2023-03-30T00:06:22.529Z,2.55
2023-03-30T00:08:56.951Z,2.88
2023-03-30T00:11:37.778Z,2.58
2023-03-30T00:14:09.954Z,2.63
2023-03-30T00:16:37.826Z,2.78
2023-03-30T00:19:08.473Z,2.75
2023-03-30T00:21:36.296Z,2.72
2023-03-30T00:24:04.167Z,2.60
2023-03-30T00:26:33.943Z,2.72
2023-03-30T00:29:01.877Z,2.28
2023-03-30T00:31:31.520Z,2.63
2023-03-30T00:33:59.450Z,2.78
2023-03-30T00:36:27.333Z,2.50
2023-03-30T00:38:55.220Z,2.40
2023-03-30T00:41:23.119Z,2.53
2023-03-30T00:43:59.665Z,2.53
2023-03-30T00:46:27.958Z,2.78
2023-03-30T00:48:59.181Z,2.90
2023-03-30T00:51:28.678Z,2.38
2023-03-30T00:54:04.946Z,2.50
2023-03-30T00:56:33.160Z,2.83
2023-03-30T00:59:02.714Z,2.40
2023-03-30T01:01:38.451Z,2.60
2023-03-30T01:04:09.684Z,2.20
2023-03-30T01:06:39.972Z,2.65
2023-03-30T01:09:08.301Z,2.53
2023-03-30T01:11:36.414Z,2.58
2023-03-30T01:14:07.159Z,2.58
2023-03-30T01:16:41.835Z,2.42
2023-03-30T01:19:37.851Z,2.20
2023-03-30T01:22:41.351Z,2.70
2023-03-30T01:25:36.609Z,2.78
2023-03-30T01:28:32.024Z,2.72
2023-03-30T01:31:42.918Z,3.10
2023-03-30T01:34:29.546Z,2.70
2023-03-30T01:37:31.221Z,3.20
2023-03-30T01:40:09.222Z,3.20
2023-03-30T01:42:40.340Z,2.83
2023-03-30T01:45:20.782Z,2.95
2023-03-30T01:47:55.367Z,3.10
2023-03-30T01:50:26.646Z,3.25
2023-03-30T01:53:00.133Z,3.33
2023-03-30T01:55:34.133Z,2.97
2023-03-30T01:58:07.826Z,3.42
2023-03-30T02:00:38.055Z,3.30
2023-03-30T02:03:08.742Z,3.60
2023-03-30T02:05:37.720Z,3.85
2023-03-30T02:08:09.807Z,3.33
2023-03-30T02:10:40.378Z,3.08
2023-03-30T02:13:09.187Z,3.05
2023-03-30T02:15:42.400Z,3.15
2023-03-30T02:18:10.910Z,3.15
2023-03-30T02:20:39.671Z,3.10
2023-03-30T02:23:08.428Z,3.28
2023-03-30T02:25:51.518Z,3.00
2023-03-30T02:28:19.378Z,3.00
2023-03-30T02:30:48.352Z,3.00
2023-03-30T02:33:26.164Z,2.72
2023-03-30T02:36:10.175Z,3.13
2023-03-30T02:38:52.583Z,2.40
2023-03-30T02:41:34.907Z,3.08
2023-03-30T02:44:09.116Z,3.10
2023-03-30T02:46:55.277Z,3.20
2023-03-30T02:49:34.107Z,2.90
2023-03-30T02:52:10.615Z,2.78
2023-03-30T02:54:47.778Z,2.70
2023-03-30T02:57:26.806Z,2.95
2023-03-30T02:59:59.760Z,2.65
2023-03-30T03:02:31.980Z,3.00
2023-03-30T03:05:04.209Z,2.85
2023-03-30T03:07:33.803Z,2.60
2023-03-30T03:10:02.128Z,2.33
2023-03-30T03:12:31.794Z,2.67
2023-03-30T03:15:01.750Z,2.50
2023-03-30T03:17:34.570Z,2.70
2023-03-30T03:20:03.544Z,2.63
2023-03-30T03:22:31.800Z,3.00
2023-03-30T03:24:59.691Z,2.75
2023-03-30T03:27:27.469Z,2.22
2023-03-30T03:29:56.793Z,2.40
2023-03-30T03:32:24.684Z,2.30
2023-03-30T03:34:52.482Z,2.60
2023-03-30T03:37:20.308Z,2.60
2023-03-30T03:39:48.090Z,2.55
2023-03-30T03:42:16.063Z,2.70
2023-03-30T03:44:43.904Z,3.05
2023-03-30T03:47:16.732Z,2.47
2023-03-30T03:49:44.583Z,2.33
2023-03-30T03:52:12.637Z,2.45
2023-03-30T03:54:40.506Z,3.22
2023-03-30T04:00:52.462Z,2.67
2023-03-30T04:03:21.706Z,2.75
2023-03-30T04:05:49.604Z,2.78
2023-03-30T04:08:18.049Z,3.00
2023-03-30T04:10:45.943Z,2.88
2023-03-30T04:13:13.696Z,3.20
2023-03-30T04:15:41.546Z,3.20
2023-03-30T04:18:09.383Z,2.80
2023-03-30T04:20:38.537Z,2.53
2023-03-30T04:23:09.681Z,2.83
2023-03-30T04:25:39.697Z,2.83
2023-03-30T04:28:07.788Z,2.78
2023-03-30T04:30:35.608Z,2.83
2023-03-30T04:33:04.413Z,2.70
2023-03-30T04:35:34.184Z,2.97
2023-03-30T04:38:03.522Z,3.00
2023-03-30T04:40:33.971Z,2.83
2023-03-30T04:43:02.665Z,2.95
2023-03-30T04:45:30.950Z,2.78
2023-03-30T04:47:58.923Z,2.90
2023-03-30T04:50:27.010Z,2.65
2023-03-30T04:52:54.916Z,3.20
2023-03-30T04:55:24.065Z,2.90
2023-03-30T04:57:51.814Z,3.13
2023-03-30T05:00:20.740Z,2.60
2023-03-30T05:02:48.794Z,2.45
2023-03-30T05:05:16.679Z,2.92
2023-03-30T05:07:44.637Z,2.95
2023-03-30T05:10:12.415Z,3.22
2023-03-30T05:12:41.517Z,2.90
2023-03-30T05:15:10.139Z,2.55
2023-03-30T05:17:39.872Z,2.67
2023-03-30T05:20:09.921Z,2.97
2023-03-30T05:22:37.927Z,2.95
2023-03-30T05:25:07.175Z,2.60
2023-03-30T05:27:35.212Z,2.80
2023-03-30T05:30:05.060Z,2.85
2023-03-30T05:32:32.830Z,2.70
2023-03-30T05:35:01.290Z,2.80
2023-03-30T05:37:29.063Z,2.78
2023-03-30T05:39:56.945Z,2.90
2023-03-30T05:42:24.717Z,2.70
2023-03-30T05:44:52.471Z,2.83
2023-03-30T05:47:21.883Z,2.53
2023-03-30T05:49:49.716Z,2.78
2023-03-30T05:52:17.562Z,2.95
2023-03-30T05:54:45.312Z,2.60
2023-03-30T05:57:13.210Z,2.78
2023-03-30T05:59:41.228Z,3.00
2023-03-30T06:02:12.747Z,2.83
2023-03-30T06:04:41.896Z,2.78
2023-03-30T06:07:10.411Z,2.90
2023-03-30T06:09:38.442Z,2.58
2023-03-30T06:12:06.676Z,2.80
2023-03-30T06:14:34.435Z,2.85
2023-03-30T06:17:02.598Z,2.80
2023-03-30T06:19:30.412Z,2.58
2023-03-30T06:21:59.545Z,2.80
2023-03-30T06:24:27.274Z,2.97
2023-03-30T06:26:55.893Z,3.20
2023-03-30T06:29:23.985Z,2.90
2023-03-30T06:31:52.170Z,2.83
2023-03-30T06:34:20.069Z,2.78
2023-03-30T06:36:48.152Z,2.60
2023-03-30T06:39:17.696Z,2.90
2023-03-30T06:41:45.621Z,2.97
2023-03-30T06:44:14.688Z,2.90
2023-03-30T06:46:42.929Z,3.08
2023-03-30T06:49:15.836Z,2.90
2023-03-30T06:51:43.615Z,2.88
2023-03-30T06:54:11.440Z,2.72
2023-03-30T06:56:40.805Z,2.90
2023-03-30T06:59:08.826Z,2.83
2023-03-30T07:01:37.063Z,2.78
2023-03-30T07:04:05.458Z,2.53
2023-03-30T07:06:33.236Z,2.75
2023-03-30T07:09:01.484Z,3.22
2023-03-30T07:11:29.432Z,3.28
2023-03-30T07:14:01.024Z,3.20
2023-03-30T07:16:28.953Z,2.80
2023-03-30T07:18:56.682Z,3.10
2023-03-30T07:21:24.422Z,2.97
2023-03-30T07:23:52.215Z,2.63
2023-03-30T07:26:20.190Z,2.80
2023-03-30T07:28:48.049Z,2.55
2023-03-30T07:31:17.315Z,2.70
2023-03-30T07:33:45.570Z,2.85
2023-03-30T07:36:13.389Z,2.70
2023-03-30T07:38:41.565Z,2.65
2023-03-30T07:41:10.629Z,2.50
2023-03-30T07:43:40.434Z,2.80
2023-03-30T07:46:09.534Z,3.10
2023-03-30T07:48:38.718Z,2.53
2023-03-30T07:51:08.197Z,3.10
2023-03-30T07:53:36.593Z,2.67
2023-03-30T07:56:04.716Z,2.70
2023-03-30T07:58:32.988Z,2.65
2023-03-30T08:01:02.678Z,2.60
2023-03-30T08:03:31.863Z,2.70
2023-03-30T08:06:04.356Z,2.70
2023-03-30T08:08:32.998Z,2.85
2023-03-30T08:11:01.274Z,2.72
2023-03-30T08:13:29.165Z,2.90
2023-03-30T08:15:57.154Z,2.92
2023-03-30T08:18:26.449Z,2.85
2023-03-30T08:20:55.964Z,2.70
2023-03-30T08:23:25.106Z,2.70
2023-03-30T08:25:53.136Z,2.85
2023-03-30T08:28:21.340Z,2.88
2023-03-30T08:30:49.662Z,2.75
2023-03-30T08:33:17.434Z,3.08
2023-03-30T08:35:46.374Z,2.70
2023-03-30T08:38:17.363Z,2.88
2023-03-30T08:40:54.324Z,2.70
2023-03-30T08:43:45.666Z,2.67
2023-03-30T08:46:16.559Z,3.53
2023-03-30T08:48:44.484Z,2.80
2023-03-30T08:51:21.828Z,3.53
2023-03-30T08:53:54.036Z,3.00
2023-03-30T08:56:26.558Z,3.00
2023-03-30T08:59:03.596Z,3.10
2023-03-30T09:01:38.052Z,2.85
2023-03-30T09:04:18.404Z,3.25
2023-03-30T09:06:51.609Z,2.58
2023-03-30T09:09:22.031Z,2.97
2023-03-30T09:11:58.711Z,3.05
2023-03-30T09:14:33.669Z,3.08
2023-03-30T09:17:09.715Z,3.35
2023-03-30T09:19:47.127Z,3.22
2023-03-30T09:22:16.659Z,2.85
2023-03-30T09:24:44.478Z,3.00
2023-03-30T09:27:20.315Z,3.00
2023-03-30T09:29:51.419Z,2.85
2023-03-30T09:32:25.607Z,2.83
2023-03-30T09:35:00.715Z,3.13
2023-03-30T09:37:29.689Z,3.10
2023-03-30T09:39:58.957Z,3.40
2023-03-30T09:42:37.024Z,2.88
2023-03-30T09:45:12.739Z,3.10
2023-03-30T09:47:42.428Z,2.70
2023-03-30T09:50:17.048Z,2.80
2023-03-30T09:52:57.546Z,2.75
2023-03-30T09:55:29.033Z,3.00
2023-03-30T09:58:13.001Z,2.80
2023-03-30T10:00:41.418Z,3.13
2023-03-30T10:03:19.968Z,2.75
2023-03-30T10:06:02.781Z,3.42
2023-03-30T10:08:31.505Z,2.97
2023-03-30T10:11:01.064Z,3.28
2023-03-30T10:13:33.680Z,3.35
2023-03-30T10:16:07.072Z,3.33
2023-03-30T10:18:41.474Z,2.70
2023-03-30T10:21:19.558Z,2.95
2023-03-30T10:24:01.137Z,2.92
2023-03-30T10:26:31.841Z,3.00
2023-03-30T10:29:05.003Z,3.20
2023-03-30T10:31:36.751Z,3.10
2023-03-30T10:34:08.668Z,2.67
2023-03-30T10:36:41.366Z,3.15
2023-03-30T10:39:14.093Z,2.92
2023-03-30T10:41:43.131Z,2.63
2023-03-30T10:44:24.501Z,3.40
2023-03-30T10:46:58.054Z,2.65
2023-03-30T10:49:39.194Z,3.13
2023-03-30T10:52:15.032Z,2.72
2023-03-30T10:54:50.042Z,3.05
2023-03-30T10:57:21.459Z,2.90
2023-03-30T11:00:11.042Z,3.47
2023-03-30T11:02:52.233Z,3.38
2023-03-30T11:05:23.706Z,2.85
2023-03-30T11:07:55.860Z,3.28
2023-03-30T11:10:29.390Z,3.15
2023-03-30T11:13:01.794Z,3.42
2023-03-30T11:15:35.943Z,3.40
2023-03-30T11:18:11.275Z,3.40
2023-03-30T11:20:43.100Z,3.30
2023-03-30T11:23:24.135Z,3.33
2023-03-30T11:26:01.473Z,3.20
2023-03-30T11:28:48.382Z,3.67
2023-03-30T11:31:29.232Z,3.40
2023-03-30T11:34:03.312Z,3.58
2023-03-30T11:36:37.760Z,3.92
2023-03-30T11:39:25.034Z,3.65
2023-03-30T11:42:06.465Z,3.10
2023-03-30T11:44:34.710Z,3.25
2023-03-30T11:47:33.639Z,3.10
2023-03-30T11:50:12.258Z,2.97
2023-03-30T11:52:49.912Z,3.22
2023-03-30T11:55:48.894Z,2.63
2023-03-30T11:58:27.932Z,2.50
2023-03-30T12:01:05.954Z,2.40
2023-03-30T12:03:43.313Z,2.65
2023-03-30T12:06:28.039Z,2.15
2023-03-30T12:09:19.125Z,1.92
2023-03-30T12:11:49.770Z,2.42
2023-03-30T12:14:32.918Z,2.50
2023-03-30T12:17:07.661Z,2.60
2023-03-30T12:19:55.485Z,2.22
2023-03-30T12:22:30.838Z,2.38
2023-03-30T12:25:08.182Z,2.20
2023-03-30T12:27:38.649Z,2.40
2023-03-30T12:30:16.058Z,2.25
2023-03-30T12:32:59.941Z,2.28
2023-03-30T12:35:54.522Z,2.50
2023-03-30T12:38:25.315Z,2.28
2023-03-30T12:41:18.364Z,2.28
2023-03-30T12:44:17.640Z,2.10
2023-03-30T12:46:58.285Z,2.13
2023-03-30T12:49:36.702Z,2.17
2023-03-30T12:52:13.679Z,1.95
2023-03-30T12:55:14.017Z,1.95
2023-03-30T12:58:09.581Z,2.40
2023-03-30T13:01:15.247Z,2.53
2023-03-30T13:03:50.097Z,2.40
2023-03-30T13:06:26.492Z,2.00
2023-03-30T13:09:05.920Z,2.40
2023-03-30T13:11:45.552Z,2.13
2023-03-30T13:14:26.232Z,2.53
2023-03-30T13:17:16.640Z,2.40
2023-03-30T13:19:49.461Z,2.13
2023-03-30T13:22:29.940Z,2.60
2023-03-30T13:25:03.746Z,2.40
2023-03-30T13:27:34.892Z,3.05
2023-03-30T13:30:06.481Z,2.53
2023-03-30T13:32:46.206Z,2.35
2023-03-30T13:35:42.128Z,2.58
2023-03-30T13:38:25.221Z,1.90
2023-03-30T13:41:05.152Z,3.13
2023-03-30T13:43:50.191Z,2.42
2023-03-30T13:46:25.590Z,2.17
2023-03-30T13:49:05.756Z,2.35
2023-03-30T13:51:34.210Z,2.08
2023-03-30T13:54:04.979Z,2.08
2023-03-30T13:56:38.927Z,1.90
2023-03-30T13:59:11.892Z,2.40
2023-03-30T14:01:41.204Z,2.22
2023-03-30T14:04:13.629Z,2.13
2023-03-30T14:06:45.569Z,2.20
2023-03-30T14:09:15.760Z,1.92
2023-03-30T14:11:47.127Z,2.15
2023-03-30T14:14:17.733Z,2.00
2023-03-30T14:16:45.663Z,2.25
2023-03-30T14:19:21.423Z,2.30
2023-03-30T14:21:49.921Z,2.50
2023-03-30T14:24:20.002Z,2.35
2023-03-30T14:26:50.257Z,1.80
2023-03-30T14:29:30.347Z,2.10
2023-03-30T14:34:34.678Z,2.17
2023-03-30T14:37:05.238Z,2.30
2023-03-30T14:39:35.471Z,2.40
2023-03-30T14:42:17.635Z,2.40
2023-03-30T14:44:47.628Z,2.13
2023-03-30T14:47:16.243Z,2.10
2023-03-30T14:49:44.966Z,2.10
2023-03-30T14:52:18.621Z,2.25
2023-03-30T14:55:02.558Z,2.05
2023-03-30T14:57:38.694Z,2.30
2023-03-30T15:00:20.411Z,2.17
2023-03-30T15:02:52.995Z,2.20
2023-03-30T15:05:23.573Z,1.63
2023-03-30T15:07:52.732Z,2.17
2023-03-30T15:10:26.624Z,2.20
2023-03-30T15:12:57.558Z,2.17
2023-03-30T15:15:28.331Z,2.13
2023-03-30T15:17:57.232Z,2.13
2023-03-30T15:20:27.557Z,2.00
2023-03-30T15:22:55.784Z,2.28
2023-03-30T15:25:30.053Z,2.08
2023-03-30T15:28:02.359Z,1.98
2023-03-30T15:30:33.612Z,1.90
2023-03-30T15:33:02.339Z,2.30
2023-03-30T15:35:34.487Z,2.20
2023-03-30T15:38:04.019Z,2.00
2023-03-30T15:40:35.258Z,1.90
2023-03-30T15:43:15.881Z,1.90
2023-03-30T15:45:48.816Z,2.60
2023-03-30T15:48:20.744Z,2.58
2023-03-30T15:50:54.865Z,2.35
2023-03-30T15:53:36.333Z,2.40
2023-03-30T15:56:04.622Z,2.28
2023-03-30T15:58:34.715Z,2.47
2023-03-30T16:01:05.009Z,2.67
2023-03-30T16:03:35.399Z,2.30
2023-03-30T16:06:03.194Z,2.53
2023-03-30T16:08:30.983Z,2.28
2023-03-30T16:10:58.925Z,2.55
2023-03-30T16:13:27.044Z,2.58
2023-03-30T16:15:57.318Z,2.13
2023-03-30T16:18:25.242Z,2.30
2023-03-30T16:20:53.113Z,2.08
2023-03-30T16:23:20.990Z,2.20
2023-03-30T16:25:48.886Z,2.55
2023-03-30T16:28:17.909Z,2.50
2023-03-30T16:30:47.839Z,1.77
2023-03-30T16:33:17.084Z,1.48
2023-03-30T16:35:45.560Z,1.83
2023-03-30T16:38:16.272Z,1.90
2023-03-30T16:40:45.984Z,1.70
2023-03-30T16:43:13.868Z,2.05
2023-03-30T16:45:41.759Z,1.80
2023-03-30T16:48:14.965Z,1.63
2023-03-30T16:50:46.262Z,1.83
2023-03-30T16:53:14.449Z,1.52
2023-03-30T16:55:42.544Z,1.60
2023-03-30T16:58:14.524Z,2.22
2023-03-30T17:00:44.824Z,1.98
2023-03-30T17:03:12.932Z,2.00
2023-03-30T17:05:41.402Z,2.00
2023-03-30T17:08:18.834Z,1.92
2023-03-30T17:10:46.606Z,2.00
2023-03-30T17:13:14.817Z,2.00
2023-03-30T17:15:42.990Z,2.17
2023-03-30T17:18:15.691Z,2.28
2023-03-30T17:20:47.934Z,1.60
2023-03-30T17:23:19.794Z,2.22
2023-03-30T17:25:49.276Z,2.08
2023-03-30T17:28:22.147Z,2.00
2023-03-30T17:30:50.925Z,2.13
2023-03-30T17:33:18.848Z,1.90
2023-03-30T17:35:50.469Z,2.30
2023-03-30T17:38:19.615Z,2.20
2023-03-30T17:40:48.458Z,1.92
2023-03-30T17:43:16.383Z,2.63
2023-03-30T17:45:44.550Z,2.20
2023-03-30T17:48:14.653Z,1.90
2023-03-30T17:50:45.956Z,1.60
2023-03-30T17:53:14.689Z,2.08
2023-03-30T17:55:45.302Z,2.17
2023-03-30T17:58:18.069Z,1.98
2023-03-30T18:00:47.281Z,2.13
2023-03-30T18:03:15.661Z,2.10
2023-03-30T18:05:45.899Z,2.15
2023-03-30T18:08:17.352Z,2.00
2023-03-30T18:10:48.490Z,2.30
2023-03-30T18:13:17.189Z,2.47
2023-03-30T18:15:48.349Z,2.53
2023-03-30T18:18:22.489Z,2.53
2023-03-30T18:20:51.692Z,2.65
2023-03-30T18:23:19.846Z,2.55
2023-03-30T18:25:49.825Z,2.75
2023-03-30T18:28:19.626Z,2.35
2023-03-30T18:30:47.690Z,2.67
2023-03-30T18:33:17.156Z,2.92
2023-03-30T18:35:46.844Z,2.67
2023-03-30T18:38:16.188Z,2.70
2023-03-30T18:40:45.631Z,2.40
2023-03-30T18:43:14.893Z,2.60
2023-03-30T18:45:45.868Z,3.08
2023-03-30T18:48:15.435Z,3.05
2023-03-30T18:50:44.609Z,2.78
2023-03-30T18:53:14.475Z,2.55
2023-03-30T18:55:45.334Z,2.42
2023-03-30T18:58:18.260Z,2.60
2023-03-30T19:00:46.734Z,2.28
2023-03-30T19:03:15.199Z,2.63
2023-03-30T19:05:44.078Z,2.63
2023-03-30T19:08:13.814Z,2.55
2023-03-30T19:10:43.488Z,2.50
2023-03-30T19:13:15.565Z,2.22
2023-03-30T19:15:44.417Z,2.50
2023-03-30T19:18:12.826Z,2.65
2023-03-30T19:20:41.613Z,3.10
2023-03-30T19:23:12.117Z,2.38
2023-03-30T19:25:40.813Z,2.40
2023-03-30T19:28:09.845Z,2.40
2023-03-30T19:30:40.384Z,2.53
2023-03-30T19:33:11.913Z,2.50
2023-03-30T19:35:41.606Z,2.58
2023-03-30T19:38:09.732Z,2.35
2023-03-30T19:40:38.482Z,2.50
2023-03-30T19:43:06.948Z,2.40
2023-03-30T19:45:35.017Z,2.30
2023-03-30T19:48:04.614Z,2.35
2023-03-30T19:50:34.731Z,2.30
2023-03-30T19:53:02.908Z,2.00
2023-03-30T19:55:31.075Z,2.38
2023-03-30T19:57:59.008Z,2.03
2023-03-30T20:00:26.959Z,2.35
2023-03-30T20:02:56.422Z,2.17
2023-03-30T20:05:26.252Z,2.15
2023-03-30T20:07:54.095Z,2.08
2023-03-30T20:10:24.546Z,2.38
2023-03-30T20:12:53.082Z,2.25
2023-03-30T20:15:22.984Z,2.17
2023-03-30T20:17:58.377Z,2.28
2023-03-30T20:20:27.961Z,2.05
2023-03-30T20:22:56.794Z,2.25
2023-03-30T20:25:25.326Z,2.10
2023-03-30T20:27:53.633Z,2.00
2023-03-30T20:30:22.374Z,1.92
2023-03-30T20:33:06.333Z,2.10
2023-03-30T20:35:38.117Z,2.30
2023-03-30T20:38:08.209Z,2.05
2023-03-30T20:40:36.259Z,1.85
2023-03-30T20:43:10.082Z,2.10
2023-03-30T20:45:46.033Z,2.00
2023-03-30T20:48:26.200Z,2.10
2023-03-30T20:50:56.773Z,1.90
2023-03-30T20:53:25.424Z,2.13
2023-03-30T20:55:53.412Z,1.70
2023-03-30T20:58:22.273Z,1.80
2023-03-30T21:00:51.836Z,2.10
2023-03-30T21:03:20.290Z,2.20
2023-03-30T21:05:58.707Z,2.08
2023-03-30T21:08:28.656Z,1.98
2023-03-30T21:10:56.701Z,1.63
2023-03-30T21:13:24.833Z,1.77
2023-03-30T21:15:57.657Z,1.75
2023-03-30T21:18:25.871Z,1.80
2023-03-30T21:20:54.392Z,1.90
2023-03-30T21:23:25.204Z,1.80
2023-03-30T21:25:57.235Z,2.00
2023-03-30T21:28:27.087Z,1.52
2023-03-30T21:30:55.440Z,1.85
2023-03-30T21:33:24.066Z,1.73
2023-03-30T21:35:53.500Z,1.77
2023-03-30T21:38:22.209Z,2.00
2023-03-30T21:40:59.976Z,1.77
2023-03-30T21:43:29.816Z,1.90
2023-03-30T21:45:59.621Z,1.85
2023-03-30T21:48:29.113Z,1.65
2023-03-30T21:51:01.082Z,1.80
2023-03-30T21:53:30.290Z,1.80
2023-03-30T21:56:00.284Z,1.95
2023-03-30T21:58:28.787Z,2.00
2023-03-30T22:01:10.667Z,1.60
2023-03-30T22:03:40.135Z,1.63
2023-03-30T22:06:09.976Z,1.70
2023-03-30T22:08:38.294Z,1.65
2023-03-30T22:11:12.620Z,1.90
2023-03-30T22:13:40.899Z,1.75
2023-03-30T22:16:12.443Z,1.60
2023-03-30T22:18:40.760Z,1.58
2023-03-30T22:21:12.503Z,1.70
2023-03-30T22:23:40.475Z,2.03
2023-03-30T22:26:09.800Z,1.67
2023-03-30T22:28:37.691Z,1.60
2023-03-30T22:31:08.642Z,1.88
2023-03-30T22:33:36.753Z,1.55
2023-03-30T22:36:07.231Z,1.40
2023-03-30T22:38:35.547Z,1.73
2023-03-30T22:41:07.368Z,1.67
2023-03-30T22:43:37.236Z,1.60
2023-03-30T22:46:07.345Z,1.88
2023-03-30T22:48:36.002Z,1.75
2023-03-30T22:51:04.951Z,1.63
2023-03-30T22:53:33.379Z,1.80
2023-03-30T22:56:03.378Z,1.98
2023-03-30T22:58:31.377Z,1.95
2023-03-30T23:01:05.963Z,1.65
2023-03-30T23:03:34.452Z,1.60
2023-03-30T23:06:02.570Z,1.58
2023-03-30T23:08:30.671Z,1.30
2023-03-30T23:11:05.082Z,1.58
2023-03-30T23:13:37.398Z,1.52
2023-03-30T23:16:08.102Z,1.92
2023-03-30T23:18:37.077Z,1.90
2023-03-30T23:21:08.433Z,1.60
2023-03-30T23:23:37.189Z,1.90
2023-03-30T23:26:08.948Z,1.70
2023-03-30T23:28:39.281Z,1.92
2023-03-30T23:31:13.562Z,1.33
2023-03-30T23:33:41.694Z,1.83
2023-03-30T23:36:13.373Z,1.30
2023-03-30T23:38:41.388Z,1.40
2023-03-30T23:41:09.920Z,1.42
2023-03-30T23:43:37.746Z,1.50
2023-03-30T23:46:05.920Z,1.42
2023-03-30T23:48:35.471Z,1.58
2023-03-30T23:51:03.327Z,1.70
2023-03-30T23:53:31.165Z,1.60
2023-03-30T23:56:05.770Z,1.55
2023-03-30T23:58:34.213Z,1.50
